sensor_id;sensor_type;location;lat;lon;timestamp;temperature;humidity
8676;DHT22;4375;52.486;13.424;2023-06-22T00:01:50;22.10;99.90
8676;DHT22;4375;52.486;13.424;2023-06-22T00:04:16;22.20;99.90
8676;DHT22;4375;52.486;13.424;2023-06-22T00:06:42;22.20;99.90
8676;DHT22;4375;52.486;13.424;2023-06-22T00:09:07;22.10;99.90
8676;DHT22;4375;52.486;13.424;2023-06-22T00:11:33;22.10;99.90
8676;DHT22;4375;52.486;13.424;2023-06-22T00:14:03;22.10;99.90
8676;DHT22;4375;52.486;13.424;2023-06-22T00:16:29;22.00;99.90
8676;DHT22;4375;52.486;13.424;2023-06-22T00:18:55;22.10;99.90
8676;DHT22;4375;52.486;13.424;2023-06-22T00:21:20;22.00;99.90
8676;DHT22;4375;52.486;13.424;2023-06-22T00:23:46;22.00;99.90
8676;DHT22;4375;52.486;13.424;2023-06-22T00:26:13;22.00;99.90
8676;DHT22;4375;52.486;13.424;2023-06-22T00:28:39;22.00;99.90
8676;DHT22;4375;52.486;13.424;2023-06-22T00:31:05;22.00;99.90
8676;DHT22;4375;52.486;13.424;2023-06-22T00:33:30;21.90;99.90
8676;DHT22;4375;52.486;13.424;2023-06-22T00:35:57;21.90;99.90
8676;DHT22;4375;52.486;13.424;2023-06-22T00:38:22;21.90;99.90
8676;DHT22;4375;52.486;13.424;2023-06-22T00:40:48;21.80;99.90
8676;DHT22;4375;52.486;13.424;2023-06-22T00:43:14;21.70;99.90
8676;DHT22;4375;52.486;13.424;2023-06-22T00:45:39;21.60;99.90
8676;DHT22;4375;52.486;13.424;2023-06-22T00:48:06;21.60;99.90
8676;DHT22;4375;52.486;13.424;2023-06-22T00:50:33;21.60;99.90
8676;DHT22;4375;52.486;13.424;2023-06-22T00:53:03;21.60;99.90
8676;DHT22;4375;52.486;13.424;2023-06-22T00:55:44;21.60;99.90
8676;DHT22;4375;52.486;13.424;2023-06-22T00:58:12;21.60;99.90
8676;DHT22;4375;52.486;13.424;2023-06-22T01:00:39;21.60;99.90
8676;DHT22;4375;52.486;13.424;2023-06-22T01:03:05;21.60;99.90
8676;DHT22;4375;52.486;13.424;2023-06-22T01:05:34;21.50;99.90
8676;DHT22;4375;52.486;13.424;2023-06-22T01:11:11;21.50;99.90
8676;DHT22;4375;52.486;13.424;2023-06-22T01:13:44;21.40;99.90
8676;DHT22;4375;52.486;13.424;2023-06-22T01:18:55;21.50;99.90
8676;DHT22;4375;52.486;13.424;2023-06-22T01:21:23;21.50;99.90
8676;DHT22;4375;52.486;13.424;2023-06-22T01:29:24;21.50;99.90
8676;DHT22;4375;52.486;13.424;2023-06-22T01:31:54;21.40;99.90
8676;DHT22;4375;52.486;13.424;2023-06-22T01:34:22;21.50;99.90
8676;DHT22;4375;52.486;13.424;2023-06-22T01:36:49;21.50;99.90
8676;DHT22;4375;52.486;13.424;2023-06-22T01:39:15;21.40;99.90
8676;DHT22;4375;52.486;13.424;2023-06-22T01:41:42;21.40;99.90
8676;DHT22;4375;52.486;13.424;2023-06-22T01:44:09;21.30;99.90
8676;DHT22;4375;52.486;13.424;2023-06-22T01:46:36;21.30;99.90
8676;DHT22;4375;52.486;13.424;2023-06-22T01:49:03;21.20;99.90
8676;DHT22;4375;52.486;13.424;2023-06-22T01:51:30;21.20;99.90
8676;DHT22;4375;52.486;13.424;2023-06-22T01:53:56;21.30;99.90
8676;DHT22;4375;52.486;13.424;2023-06-22T01:56:21;21.30;99.90
8676;DHT22;4375;52.486;13.424;2023-06-22T01:59:00;21.30;99.90
8676;DHT22;4375;52.486;13.424;2023-06-22T02:01:36;21.30;99.90
8676;DHT22;4375;52.486;13.424;2023-06-22T02:04:11;21.20;99.90
8676;DHT22;4375;52.486;13.424;2023-06-22T02:06:39;21.20;99.90
8676;DHT22;4375;52.486;13.424;2023-06-22T02:09:14;21.30;99.90
8676;DHT22;4375;52.486;13.424;2023-06-22T02:11:42;21.30;99.90
8676;DHT22;4375;52.486;13.424;2023-06-22T02:14:09;21.30;99.90
8676;DHT22;4375;52.486;13.424;2023-06-22T02:16:35;21.20;99.90
8676;DHT22;4375;52.486;13.424;2023-06-22T02:19:02;21.20;99.90
8676;DHT22;4375;52.486;13.424;2023-06-22T02:21:31;21.30;99.90
8676;DHT22;4375;52.486;13.424;2023-06-22T02:23:57;21.30;99.90
8676;DHT22;4375;52.486;13.424;2023-06-22T02:26:25;21.20;99.90
8676;DHT22;4375;52.486;13.424;2023-06-22T02:28:51;21.20;99.90
8676;DHT22;4375;52.486;13.424;2023-06-22T02:31:17;21.30;99.90
8676;DHT22;4375;52.486;13.424;2023-06-22T02:33:43;21.30;99.90
8676;DHT22;4375;52.486;13.424;2023-06-22T02:36:09;21.30;99.90
8676;DHT22;4375;52.486;13.424;2023-06-22T02:38:38;21.20;99.90
8676;DHT22;4375;52.486;13.424;2023-06-22T02:41:05;21.10;99.90
8676;DHT22;4375;52.486;13.424;2023-06-22T02:43:32;21.20;99.90
8676;DHT22;4375;52.486;13.424;2023-06-22T02:45:57;21.20;99.90
8676;DHT22;4375;52.486;13.424;2023-06-22T02:48:23;21.20;99.90
8676;DHT22;4375;52.486;13.424;2023-06-22T02:50:49;21.10;99.90
8676;DHT22;4375;52.486;13.424;2023-06-22T02:53:14;21.10;99.90
8676;DHT22;4375;52.486;13.424;2023-06-22T02:55:40;21.20;99.90
8676;DHT22;4375;52.486;13.424;2023-06-22T02:58:05;21.10;99.90
8676;DHT22;4375;52.486;13.424;2023-06-22T03:00:31;21.10;99.90
8676;DHT22;4375;52.486;13.424;2023-06-22T03:02:57;21.20;99.90
8676;DHT22;4375;52.486;13.424;2023-06-22T03:05:23;21.20;99.90
8676;DHT22;4375;52.486;13.424;2023-06-22T03:07:49;21.20;99.90
8676;DHT22;4375;52.486;13.424;2023-06-22T03:10:15;21.20;99.90
8676;DHT22;4375;52.486;13.424;2023-06-22T03:12:43;21.30;99.90
8676;DHT22;4375;52.486;13.424;2023-06-22T03:15:12;21.30;99.90
8676;DHT22;4375;52.486;13.424;2023-06-22T03:17:39;21.30;99.90
8676;DHT22;4375;52.486;13.424;2023-06-22T03:20:05;21.30;99.90
8676;DHT22;4375;52.486;13.424;2023-06-22T03:22:36;21.30;99.90
8676;DHT22;4375;52.486;13.424;2023-06-22T03:25:02;21.30;99.90
8676;DHT22;4375;52.486;13.424;2023-06-22T03:27:28;21.20;99.90
8676;DHT22;4375;52.486;13.424;2023-06-22T03:29:54;21.20;99.90
8676;DHT22;4375;52.486;13.424;2023-06-22T03:32:19;21.20;99.90
8676;DHT22;4375;52.486;13.424;2023-06-22T03:34:45;21.20;99.90
8676;DHT22;4375;52.486;13.424;2023-06-22T03:37:16;21.20;99.90
8676;DHT22;4375;52.486;13.424;2023-06-22T03:39:42;21.20;99.90
8676;DHT22;4375;52.486;13.424;2023-06-22T03:42:07;21.30;99.90
8676;DHT22;4375;52.486;13.424;2023-06-22T03:44:34;21.30;99.90
8676;DHT22;4375;52.486;13.424;2023-06-22T03:47:02;21.30;99.90
8676;DHT22;4375;52.486;13.424;2023-06-22T03:49:28;21.30;99.90
8676;DHT22;4375;52.486;13.424;2023-06-22T03:51:54;21.30;99.90
8676;DHT22;4375;52.486;13.424;2023-06-22T03:54:19;21.30;99.90
8676;DHT22;4375;52.486;13.424;2023-06-22T03:56:45;21.20;99.90
8676;DHT22;4375;52.486;13.424;2023-06-22T03:59:10;21.20;99.90
8676;DHT22;4375;52.486;13.424;2023-06-22T04:01:36;21.10;99.90
8676;DHT22;4375;52.486;13.424;2023-06-22T04:04:02;21.10;99.90
8676;DHT22;4375;52.486;13.424;2023-06-22T04:06:28;21.10;99.90
8676;DHT22;4375;52.486;13.424;2023-06-22T04:08:53;21.10;99.90
8676;DHT22;4375;52.486;13.424;2023-06-22T04:11:19;21.10;99.90
8676;DHT22;4375;52.486;13.424;2023-06-22T04:13:44;21.10;99.90
8676;DHT22;4375;52.486;13.424;2023-06-22T04:16:10;21.20;99.90
8676;DHT22;4375;52.486;13.424;2023-06-22T04:18:36;21.20;99.90
8676;DHT22;4375;52.486;13.424;2023-06-22T04:21:02;21.20;99.90
8676;DHT22;4375;52.486;13.424;2023-06-22T04:23:28;21.20;99.90
8676;DHT22;4375;52.486;13.424;2023-06-22T04:25:54;21.10;99.90
8676;DHT22;4375;52.486;13.424;2023-06-22T04:28:21;21.10;99.90
8676;DHT22;4375;52.486;13.424;2023-06-22T04:30:47;21.30;99.90
8676;DHT22;4375;52.486;13.424;2023-06-22T04:33:17;21.20;99.90
8676;DHT22;4375;52.486;13.424;2023-06-22T04:35:45;21.20;99.90
8676;DHT22;4375;52.486;13.424;2023-06-22T04:38:12;21.20;99.90
8676;DHT22;4375;52.486;13.424;2023-06-22T04:40:39;21.20;99.90
8676;DHT22;4375;52.486;13.424;2023-06-22T04:43:05;21.30;99.90
8676;DHT22;4375;52.486;13.424;2023-06-22T04:45:34;21.30;99.90
8676;DHT22;4375;52.486;13.424;2023-06-22T04:48:03;21.30;99.90
8676;DHT22;4375;52.486;13.424;2023-06-22T04:50:29;21.40;99.90
8676;DHT22;4375;52.486;13.424;2023-06-22T04:52:55;21.30;99.90
8676;DHT22;4375;52.486;13.424;2023-06-22T04:55:20;21.40;99.90
8676;DHT22;4375;52.486;13.424;2023-06-22T04:57:47;21.60;99.90
8676;DHT22;4375;52.486;13.424;2023-06-22T05:00:17;21.70;99.90
8676;DHT22;4375;52.486;13.424;2023-06-22T05:02:44;21.90;99.90
8676;DHT22;4375;52.486;13.424;2023-06-22T05:05:11;22.10;99.90
8676;DHT22;4375;52.486;13.424;2023-06-22T05:07:40;22.10;99.90
8676;DHT22;4375;52.486;13.424;2023-06-22T05:10:11;22.20;99.90
8676;DHT22;4375;52.486;13.424;2023-06-22T05:12:41;22.30;99.90
8676;DHT22;4375;52.486;13.424;2023-06-22T05:15:10;22.30;99.90
8676;DHT22;4375;52.486;13.424;2023-06-22T05:17:36;22.40;99.90
8676;DHT22;4375;52.486;13.424;2023-06-22T05:20:09;22.20;99.90
8676;DHT22;4375;52.486;13.424;2023-06-22T05:22:34;22.30;99.90
8676;DHT22;4375;52.486;13.424;2023-06-22T05:25:00;22.40;99.90
8676;DHT22;4375;52.486;13.424;2023-06-22T05:27:26;22.70;99.90
8676;DHT22;4375;52.486;13.424;2023-06-22T05:29:51;22.80;99.90
8676;DHT22;4375;52.486;13.424;2023-06-22T05:32:17;22.90;99.90
8676;DHT22;4375;52.486;13.424;2023-06-22T05:34:44;23.00;99.90
8676;DHT22;4375;52.486;13.424;2023-06-22T05:37:10;23.10;99.90
8676;DHT22;4375;52.486;13.424;2023-06-22T05:39:36;23.10;99.90
8676;DHT22;4375;52.486;13.424;2023-06-22T05:42:05;23.10;99.90
8676;DHT22;4375;52.486;13.424;2023-06-22T05:44:31;23.10;99.90
8676;DHT22;4375;52.486;13.424;2023-06-22T05:46:56;23.30;99.90
8676;DHT22;4375;52.486;13.424;2023-06-22T05:49:22;23.00;99.90
8676;DHT22;4375;52.486;13.424;2023-06-22T05:51:49;23.00;99.90
8676;DHT22;4375;52.486;13.424;2023-06-22T05:54:15;22.90;99.90
8676;DHT22;4375;52.486;13.424;2023-06-22T05:56:43;23.00;99.90
8676;DHT22;4375;52.486;13.424;2023-06-22T05:59:08;22.80;99.90
8676;DHT22;4375;52.486;13.424;2023-06-22T06:01:34;22.70;99.90
8676;DHT22;4375;52.486;13.424;2023-06-22T06:04:02;22.60;99.90
8676;DHT22;4375;52.486;13.424;2023-06-22T06:06:27;22.70;99.90
8676;DHT22;4375;52.486;13.424;2023-06-22T06:08:54;22.90;99.90
8676;DHT22;4375;52.486;13.424;2023-06-22T06:11:19;22.90;99.90
8676;DHT22;4375;52.486;13.424;2023-06-22T06:13:45;23.10;99.90
8676;DHT22;4375;52.486;13.424;2023-06-22T06:16:11;23.20;99.90
8676;DHT22;4375;52.486;13.424;2023-06-22T06:18:37;23.20;99.90
8676;DHT22;4375;52.486;13.424;2023-06-22T06:21:03;23.40;99.90
8676;DHT22;4375;52.486;13.424;2023-06-22T06:23:28;23.60;99.90
8676;DHT22;4375;52.486;13.424;2023-06-22T06:25:54;23.70;99.90
8676;DHT22;4375;52.486;13.424;2023-06-22T06:28:19;23.60;99.90
8676;DHT22;4375;52.486;13.424;2023-06-22T06:30:45;23.70;99.90
8676;DHT22;4375;52.486;13.424;2023-06-22T06:33:12;23.70;99.90
8676;DHT22;4375;52.486;13.424;2023-06-22T06:35:38;23.80;99.90
8676;DHT22;4375;52.486;13.424;2023-06-22T06:38:04;23.60;99.90
8676;DHT22;4375;52.486;13.424;2023-06-22T06:40:29;23.80;99.90
8676;DHT22;4375;52.486;13.424;2023-06-22T06:42:55;23.90;99.90
8676;DHT22;4375;52.486;13.424;2023-06-22T06:45:22;24.00;99.90
8676;DHT22;4375;52.486;13.424;2023-06-22T06:47:49;24.30;99.90
8676;DHT22;4375;52.486;13.424;2023-06-22T06:50:15;24.40;99.90
8676;DHT22;4375;52.486;13.424;2023-06-22T06:52:41;24.60;99.90
8676;DHT22;4375;52.486;13.424;2023-06-22T06:55:07;24.80;99.90
8676;DHT22;4375;52.486;13.424;2023-06-22T06:57:37;24.70;99.90
8676;DHT22;4375;52.486;13.424;2023-06-22T07:00:05;25.00;99.90
8676;DHT22;4375;52.486;13.424;2023-06-22T07:02:35;25.10;99.90
8676;DHT22;4375;52.486;13.424;2023-06-22T07:05:01;25.20;99.90
8676;DHT22;4375;52.486;13.424;2023-06-22T07:07:29;25.00;99.90
8676;DHT22;4375;52.486;13.424;2023-06-22T07:09:54;25.10;99.90
8676;DHT22;4375;52.486;13.424;2023-06-22T07:12:20;25.20;99.90
8676;DHT22;4375;52.486;13.424;2023-06-22T07:14:46;25.50;99.90
8676;DHT22;4375;52.486;13.424;2023-06-22T07:17:12;25.90;99.90
8676;DHT22;4375;52.486;13.424;2023-06-22T07:19:37;27.40;99.90
8676;DHT22;4375;52.486;13.424;2023-06-22T07:22:04;28.80;99.90
8676;DHT22;4375;52.486;13.424;2023-06-22T07:24:30;28.70;99.90
8676;DHT22;4375;52.486;13.424;2023-06-22T07:26:55;28.90;99.90
8676;DHT22;4375;52.486;13.424;2023-06-22T07:29:24;30.30;99.90
8676;DHT22;4375;52.486;13.424;2023-06-22T07:31:50;31.10;99.90
8676;DHT22;4375;52.486;13.424;2023-06-22T07:34:22;30.70;99.90
8676;DHT22;4375;52.486;13.424;2023-06-22T07:36:47;31.50;99.90
8676;DHT22;4375;52.486;13.424;2023-06-22T07:39:13;30.30;99.90
8676;DHT22;4375;52.486;13.424;2023-06-22T07:41:40;29.80;99.90
8676;DHT22;4375;52.486;13.424;2023-06-22T07:44:08;29.20;99.90
8676;DHT22;4375;52.486;13.424;2023-06-22T07:46:34;29.40;99.90
8676;DHT22;4375;52.486;13.424;2023-06-22T07:49:00;28.80;99.90
8676;DHT22;4375;52.486;13.424;2023-06-22T07:51:26;28.10;99.90
8676;DHT22;4375;52.486;13.424;2023-06-22T07:53:52;28.00;99.90
8676;DHT22;4375;52.486;13.424;2023-06-22T07:56:18;27.70;99.90
8676;DHT22;4375;52.486;13.424;2023-06-22T07:58:47;28.10;99.90
8676;DHT22;4375;52.486;13.424;2023-06-22T08:01:14;27.80;99.90
8676;DHT22;4375;52.486;13.424;2023-06-22T08:03:40;28.10;99.90
8676;DHT22;4375;52.486;13.424;2023-06-22T08:06:07;27.40;99.90
8676;DHT22;4375;52.486;13.424;2023-06-22T08:08:37;27.10;99.90
8676;DHT22;4375;52.486;13.424;2023-06-22T08:11:03;26.90;99.90
8676;DHT22;4375;52.486;13.424;2023-06-22T08:13:28;26.80;99.90
8676;DHT22;4375;52.486;13.424;2023-06-22T08:15:54;26.80;99.90
8676;DHT22;4375;52.486;13.424;2023-06-22T08:18:20;27.10;99.90
8676;DHT22;4375;52.486;13.424;2023-06-22T08:20:46;27.00;99.90
8676;DHT22;4375;52.486;13.424;2023-06-22T08:23:12;27.10;99.90
8676;DHT22;4375;52.486;13.424;2023-06-22T08:25:40;26.80;99.90
8676;DHT22;4375;52.486;13.424;2023-06-22T08:28:06;26.90;99.90
8676;DHT22;4375;52.486;13.424;2023-06-22T08:30:32;27.00;99.90
8676;DHT22;4375;52.486;13.424;2023-06-22T08:32:58;27.40;99.90
8676;DHT22;4375;52.486;13.424;2023-06-22T08:35:23;27.30;99.90
8676;DHT22;4375;52.486;13.424;2023-06-22T08:37:49;27.20;99.90
8676;DHT22;4375;52.486;13.424;2023-06-22T08:40:18;26.70;99.90
8676;DHT22;4375;52.486;13.424;2023-06-22T08:42:45;26.90;99.90
8676;DHT22;4375;52.486;13.424;2023-06-22T08:45:11;27.10;99.90
8676;DHT22;4375;52.486;13.424;2023-06-22T08:47:37;27.50;99.90
8676;DHT22;4375;52.486;13.424;2023-06-22T08:50:04;27.60;99.90
8676;DHT22;4375;52.486;13.424;2023-06-22T08:52:30;27.50;99.90
8676;DHT22;4375;52.486;13.424;2023-06-22T08:54:56;26.90;99.90
8676;DHT22;4375;52.486;13.424;2023-06-22T08:57:22;27.10;99.90
8676;DHT22;4375;52.486;13.424;2023-06-22T08:59:47;27.30;99.90
8676;DHT22;4375;52.486;13.424;2023-06-22T09:02:13;27.90;99.90
8676;DHT22;4375;52.486;13.424;2023-06-22T09:04:39;29.00;99.90
8676;DHT22;4375;52.486;13.424;2023-06-22T09:07:04;29.70;99.90
8676;DHT22;4375;52.486;13.424;2023-06-22T09:09:30;30.20;99.90
8676;DHT22;4375;52.486;13.424;2023-06-22T09:11:56;29.00;99.90
8676;DHT22;4375;52.486;13.424;2023-06-22T09:14:21;29.50;99.90
8676;DHT22;4375;52.486;13.424;2023-06-22T09:16:47;29.90;99.90
8676;DHT22;4375;52.486;13.424;2023-06-22T09:19:13;30.20;99.90
8676;DHT22;4375;52.486;13.424;2023-06-22T09:21:39;30.10;99.90
8676;DHT22;4375;52.486;13.424;2023-06-22T09:24:05;28.10;99.90
8676;DHT22;4375;52.486;13.424;2023-06-22T09:26:30;28.20;99.90
8676;DHT22;4375;52.486;13.424;2023-06-22T09:28:56;28.10;99.90
8676;DHT22;4375;52.486;13.424;2023-06-22T09:31:24;28.60;99.90
8676;DHT22;4375;52.486;13.424;2023-06-22T09:33:55;28.40;99.90
8676;DHT22;4375;52.486;13.424;2023-06-22T09:36:23;28.30;99.90
8676;DHT22;4375;52.486;13.424;2023-06-22T09:38:49;28.80;99.90
8676;DHT22;4375;52.486;13.424;2023-06-22T09:41:20;28.80;99.90
8676;DHT22;4375;52.486;13.424;2023-06-22T09:43:46;28.90;99.90
8676;DHT22;4375;52.486;13.424;2023-06-22T09:46:14;28.80;99.90
8676;DHT22;4375;52.486;13.424;2023-06-22T09:48:40;28.70;99.90
8676;DHT22;4375;52.486;13.424;2023-06-22T09:51:06;28.80;99.90
8676;DHT22;4375;52.486;13.424;2023-06-22T09:53:31;28.30;99.90
8676;DHT22;4375;52.486;13.424;2023-06-22T09:55:57;28.40;99.90
8676;DHT22;4375;52.486;13.424;2023-06-22T09:58:23;28.40;99.90
8676;DHT22;4375;52.486;13.424;2023-06-22T10:00:48;28.40;99.90
8676;DHT22;4375;52.486;13.424;2023-06-22T10:03:14;28.70;99.90
8676;DHT22;4375;52.486;13.424;2023-06-22T10:05:40;28.50;99.90
8676;DHT22;4375;52.486;13.424;2023-06-22T10:08:05;28.60;99.90
8676;DHT22;4375;52.486;13.424;2023-06-22T10:10:33;29.00;99.90
8676;DHT22;4375;52.486;13.424;2023-06-22T10:13:07;29.10;99.90
8676;DHT22;4375;52.486;13.424;2023-06-22T10:15:34;28.90;99.90
8676;DHT22;4375;52.486;13.424;2023-06-22T10:18:00;28.80;99.90
8676;DHT22;4375;52.486;13.424;2023-06-22T10:20:25;29.10;99.90
8676;DHT22;4375;52.486;13.424;2023-06-22T10:22:51;29.30;99.90
8676;DHT22;4375;52.486;13.424;2023-06-22T10:25:17;29.10;99.90
8676;DHT22;4375;52.486;13.424;2023-06-22T10:27:43;29.10;99.90
8676;DHT22;4375;52.486;13.424;2023-06-22T10:30:11;29.40;99.90
8676;DHT22;4375;52.486;13.424;2023-06-22T10:32:38;29.60;99.90
8676;DHT22;4375;52.486;13.424;2023-06-22T10:35:05;30.10;99.90
8676;DHT22;4375;52.486;13.424;2023-06-22T10:37:31;30.40;99.90
8676;DHT22;4375;52.486;13.424;2023-06-22T10:39:56;30.10;98.90
8676;DHT22;4375;52.486;13.424;2023-06-22T10:42:22;30.20;99.30
8676;DHT22;4375;52.486;13.424;2023-06-22T10:44:48;29.80;99.10
8676;DHT22;4375;52.486;13.424;2023-06-22T10:47:13;29.40;98.80
8676;DHT22;4375;52.486;13.424;2023-06-22T10:49:39;29.70;99.00
8676;DHT22;4375;52.486;13.424;2023-06-22T10:52:08;29.80;99.80
8676;DHT22;4375;52.486;13.424;2023-06-22T10:54:36;29.60;99.60
8676;DHT22;4375;52.486;13.424;2023-06-22T10:57:02;29.60;99.60
8676;DHT22;4375;52.486;13.424;2023-06-22T10:59:28;29.90;99.00
8676;DHT22;4375;52.486;13.424;2023-06-22T11:01:58;30.30;98.50
8676;DHT22;4375;52.486;13.424;2023-06-22T11:04:24;30.50;98.10
8676;DHT22;4375;52.486;13.424;2023-06-22T11:06:50;30.10;97.40
8676;DHT22;4375;52.486;13.424;2023-06-22T11:09:16;29.90;97.50
8676;DHT22;4375;52.486;13.424;2023-06-22T11:11:48;29.40;98.40
8676;DHT22;4375;52.486;13.424;2023-06-22T11:14:14;29.60;97.80
8676;DHT22;4375;52.486;13.424;2023-06-22T11:16:40;29.50;98.10
8676;DHT22;4375;52.486;13.424;2023-06-22T11:19:06;29.40;97.60
8676;DHT22;4375;52.486;13.424;2023-06-22T11:21:32;29.40;97.40
8676;DHT22;4375;52.486;13.424;2023-06-22T11:23:58;28.70;98.20
8676;DHT22;4375;52.486;13.424;2023-06-22T11:26:24;28.70;98.20
8676;DHT22;4375;52.486;13.424;2023-06-22T11:28:52;28.60;99.30
8676;DHT22;4375;52.486;13.424;2023-06-22T11:31:18;28.80;98.60
8676;DHT22;4375;52.486;13.424;2023-06-22T11:33:44;29.00;98.30
8676;DHT22;4375;52.486;13.424;2023-06-22T11:36:11;29.00;98.20
8676;DHT22;4375;52.486;13.424;2023-06-22T11:38:37;28.70;98.30
8676;DHT22;4375;52.486;13.424;2023-06-22T11:41:08;28.60;98.40
8676;DHT22;4375;52.486;13.424;2023-06-22T11:43:34;28.80;98.80
8676;DHT22;4375;52.486;13.424;2023-06-22T11:46:03;28.80;98.70
8676;DHT22;4375;52.486;13.424;2023-06-22T11:48:30;29.00;98.00
8676;DHT22;4375;52.486;13.424;2023-06-22T11:50:56;28.70;98.60
8676;DHT22;4375;52.486;13.424;2023-06-22T11:53:25;28.70;98.20
8676;DHT22;4375;52.486;13.424;2023-06-22T11:55:52;28.90;98.40
8676;DHT22;4375;52.486;13.424;2023-06-22T11:58:19;28.90;98.20
8676;DHT22;4375;52.486;13.424;2023-06-22T12:00:45;28.70;98.60
8676;DHT22;4375;52.486;13.424;2023-06-22T12:03:10;28.80;98.30
8676;DHT22;4375;52.486;13.424;2023-06-22T12:05:37;28.90;98.60
8676;DHT22;4375;52.486;13.424;2023-06-22T12:08:03;28.80;98.30
8676;DHT22;4375;52.486;13.424;2023-06-22T12:10:29;28.50;98.50
8676;DHT22;4375;52.486;13.424;2023-06-22T12:12:55;28.60;98.10
8676;DHT22;4375;52.486;13.424;2023-06-22T12:15:20;28.80;98.30
8676;DHT22;4375;52.486;13.424;2023-06-22T12:17:46;29.00;98.20
8676;DHT22;4375;52.486;13.424;2023-06-22T12:20:13;29.00;97.90
8676;DHT22;4375;52.486;13.424;2023-06-22T12:22:40;29.10;97.80
8676;DHT22;4375;52.486;13.424;2023-06-22T12:25:07;28.90;97.80
8676;DHT22;4375;52.486;13.424;2023-06-22T12:27:33;28.10;97.90
8676;DHT22;4375;52.486;13.424;2023-06-22T12:29:58;28.10;98.60
8676;DHT22;4375;52.486;13.424;2023-06-22T12:32:24;28.20;98.90
8676;DHT22;4375;52.486;13.424;2023-06-22T12:34:51;28.20;99.00
8676;DHT22;4375;52.486;13.424;2023-06-22T12:37:16;28.30;99.30
8676;DHT22;4375;52.486;13.424;2023-06-22T12:39:43;28.30;98.80
8676;DHT22;4375;52.486;13.424;2023-06-22T12:42:08;28.20;98.80
8676;DHT22;4375;52.486;13.424;2023-06-22T12:44:38;28.40;98.90
8676;DHT22;4375;52.486;13.424;2023-06-22T12:47:03;28.10;98.70
8676;DHT22;4375;52.486;13.424;2023-06-22T12:49:29;28.10;99.00
8676;DHT22;4375;52.486;13.424;2023-06-22T12:51:55;28.10;98.90
8676;DHT22;4375;52.486;13.424;2023-06-22T12:54:20;27.90;99.20
8676;DHT22;4375;52.486;13.424;2023-06-22T12:56:46;27.90;99.60
8676;DHT22;4375;52.486;13.424;2023-06-22T12:59:12;28.10;99.30
8676;DHT22;4375;52.486;13.424;2023-06-22T13:01:42;28.20;99.10
8676;DHT22;4375;52.486;13.424;2023-06-22T13:04:15;28.30;99.40
8676;DHT22;4375;52.486;13.424;2023-06-22T13:06:47;28.40;99.40
8676;DHT22;4375;52.486;13.424;2023-06-22T13:09:14;28.40;99.20
8676;DHT22;4375;52.486;13.424;2023-06-22T13:11:41;28.60;99.00
8676;DHT22;4375;52.486;13.424;2023-06-22T13:14:06;28.60;99.20
8676;DHT22;4375;52.486;13.424;2023-06-22T13:16:35;28.60;99.00
8676;DHT22;4375;52.486;13.424;2023-06-22T13:19:01;28.50;99.10
8676;DHT22;4375;52.486;13.424;2023-06-22T13:21:26;28.60;99.10
8676;DHT22;4375;52.486;13.424;2023-06-22T13:23:52;28.60;98.90
8676;DHT22;4375;52.486;13.424;2023-06-22T13:26:17;28.40;99.20
8676;DHT22;4375;52.486;13.424;2023-06-22T13:28:43;28.40;99.80
8676;DHT22;4375;52.486;13.424;2023-06-22T13:31:09;28.40;99.60
8676;DHT22;4375;52.486;13.424;2023-06-22T13:33:34;28.30;99.70
8676;DHT22;4375;52.486;13.424;2023-06-22T13:36:00;28.10;99.70
8676;DHT22;4375;52.486;13.424;2023-06-22T13:38:25;28.20;99.90
8676;DHT22;4375;52.486;13.424;2023-06-22T13:40:51;28.20;99.90
8676;DHT22;4375;52.486;13.424;2023-06-22T13:43:17;28.30;99.90
8676;DHT22;4375;52.486;13.424;2023-06-22T13:45:43;28.30;99.90
8676;DHT22;4375;52.486;13.424;2023-06-22T13:48:09;28.40;99.90
8676;DHT22;4375;52.486;13.424;2023-06-22T13:50:34;28.40;99.90
8676;DHT22;4375;52.486;13.424;2023-06-22T13:53:01;28.50;99.90
8676;DHT22;4375;52.486;13.424;2023-06-22T13:55:26;28.40;99.90
8676;DHT22;4375;52.486;13.424;2023-06-22T13:57:52;28.30;99.90
8676;DHT22;4375;52.486;13.424;2023-06-22T14:00:18;28.30;99.90
8676;DHT22;4375;52.486;13.424;2023-06-22T14:02:47;28.30;99.90
8676;DHT22;4375;52.486;13.424;2023-06-22T14:05:13;28.20;99.90
8676;DHT22;4375;52.486;13.424;2023-06-22T14:07:38;28.30;99.90
8676;DHT22;4375;52.486;13.424;2023-06-22T14:10:10;28.30;99.90
8676;DHT22;4375;52.486;13.424;2023-06-22T14:12:35;28.30;99.90
8676;DHT22;4375;52.486;13.424;2023-06-22T14:15:01;28.40;99.90
8676;DHT22;4375;52.486;13.424;2023-06-22T14:17:27;28.30;99.90
8676;DHT22;4375;52.486;13.424;2023-06-22T14:19:52;28.40;99.90
8676;DHT22;4375;52.486;13.424;2023-06-22T14:22:19;28.40;99.90
8676;DHT22;4375;52.486;13.424;2023-06-22T14:24:46;28.40;99.90
8676;DHT22;4375;52.486;13.424;2023-06-22T14:27:11;28.40;99.90
8676;DHT22;4375;52.486;13.424;2023-06-22T14:29:37;28.40;99.90
8676;DHT22;4375;52.486;13.424;2023-06-22T14:32:02;28.40;99.90
8676;DHT22;4375;52.486;13.424;2023-06-22T14:34:29;28.40;99.90
8676;DHT22;4375;52.486;13.424;2023-06-22T14:36:55;28.40;99.90
8676;DHT22;4375;52.486;13.424;2023-06-22T14:39:21;28.30;99.90
8676;DHT22;4375;52.486;13.424;2023-06-22T14:41:46;28.30;99.90
8676;DHT22;4375;52.486;13.424;2023-06-22T14:44:12;28.20;99.90
8676;DHT22;4375;52.486;13.424;2023-06-22T14:46:38;28.30;99.90
8676;DHT22;4375;52.486;13.424;2023-06-22T14:49:03;28.40;99.90
8676;DHT22;4375;52.486;13.424;2023-06-22T14:51:29;28.50;99.90
8676;DHT22;4375;52.486;13.424;2023-06-22T14:53:55;28.50;99.90
8676;DHT22;4375;52.486;13.424;2023-06-22T14:56:20;28.50;99.90
8676;DHT22;4375;52.486;13.424;2023-06-22T14:58:46;28.40;99.90
8676;DHT22;4375;52.486;13.424;2023-06-22T15:01:16;28.40;99.90
8676;DHT22;4375;52.486;13.424;2023-06-22T15:03:42;28.40;99.90
8676;DHT22;4375;52.486;13.424;2023-06-22T15:06:09;28.40;99.90
8676;DHT22;4375;52.486;13.424;2023-06-22T15:08:37;28.10;99.90
8676;DHT22;4375;52.486;13.424;2023-06-22T15:11:03;28.20;99.90
8676;DHT22;4375;52.486;13.424;2023-06-22T15:13:31;28.30;99.90
8676;DHT22;4375;52.486;13.424;2023-06-22T15:16:03;28.40;99.90
8676;DHT22;4375;52.486;13.424;2023-06-22T15:18:29;28.40;99.90
8676;DHT22;4375;52.486;13.424;2023-06-22T15:20:55;28.40;99.90
8676;DHT22;4375;52.486;13.424;2023-06-22T15:23:21;28.40;99.90
8676;DHT22;4375;52.486;13.424;2023-06-22T15:25:50;28.40;99.90
8676;DHT22;4375;52.486;13.424;2023-06-22T15:28:17;28.30;99.90
8676;DHT22;4375;52.486;13.424;2023-06-22T15:30:43;28.30;99.90
8676;DHT22;4375;52.486;13.424;2023-06-22T15:33:09;28.40;99.90
8676;DHT22;4375;52.486;13.424;2023-06-22T15:35:35;28.30;99.90
8676;DHT22;4375;52.486;13.424;2023-06-22T15:38:00;28.30;99.90
8676;DHT22;4375;52.486;13.424;2023-06-22T15:40:27;28.30;99.90
8676;DHT22;4375;52.486;13.424;2023-06-22T15:42:52;28.20;99.90
8676;DHT22;4375;52.486;13.424;2023-06-22T15:45:18;28.30;99.90
8676;DHT22;4375;52.486;13.424;2023-06-22T15:47:44;28.40;99.90
8676;DHT22;4375;52.486;13.424;2023-06-22T15:50:09;28.30;99.90
8676;DHT22;4375;52.486;13.424;2023-06-22T15:52:35;28.20;99.90